Station: Sunshine Coast Airport  

  Atmospheric Gas Attenuation - ITU Rec 676-11   ----------------- dB/100km -----------------
Date Time Temp RH % AH g/m3 Dew Point Wind Direction Speed kph Gust kph Barometer mB Rainfall Since 9am 24GHz 47GHz 76GHz 122GHz 134GHz 241GHz
04/05 22:20 22 84 16.3 19.2 7 9 1017.5 0.2 35.5 36.5 67.7 178.9 192.6 668.2
04/05 22:10 22.1 85 16.59 19.5 7 9 1017.5 0.2 36.1 37.0 69.0 182.2 196.7 682.6
04/05 22:00 22.1 85 16.59 19.5 7 9 1017.6 0.2 36.1 37.0 69.0 182.2 196.7 682.6
04/05 21:50 22.3 84 16.59 19.5 9 9 1017.7 0.2 36.1 36.9 68.8 181.7 196.2 680.9
04/05 21:40 22.5 84 16.78 19.7 11 13 1017.9 0.2 36.5 37.2 69.5 183.6 198.6 689.2
04/05 21:30 22.5 82 16.38 19.3 11 17 1017.9 0.2 35.6 36.5 67.6 178.7 192.5 668.2
04/05 21:20 22.5 82 16.38 19.3 13 17 1018 0.2 35.6 36.5 67.7 178.7 192.6 668.2
04/05 21:10 22.7 81 16.36 19.3 15 17 1018 0.2 35.5 36.4 67.4 178.0 191.7 665.4
04/05 21:00 22.7 80 16.16 19.1 15 19 1017.9 0.2 35.1 36.0 66.5 175.6 188.7 655.0
04/05 20:50 22.8 78 15.85 18.8 15 19 1018 0.2 34.4 35.4 65.0 171.6 183.9 638.3
04/05 20:40 22.6 79 15.87 18.8 13 15 1017.9 0.2 34.5 35.5 65.2 172.3 184.7 640.9
04/05 20:30 22.7 80 16.16 19.1 13 17 1017.8 0.2 35.1 36.0 66.5 175.6 188.7 655.0
04/05 20:20 22.6 80 16.07 19 13 15 1017.9 0.2 34.9 35.9 66.1 174.7 187.7 651.2
04/05 20:10 22.5 81 16.18 19.1 13 15 1017.9 0.2 35.2 36.1 66.7 176.3 189.5 657.8
04/05 20:00 22.5 83 16.58 19.5 13 19 1017.7 0.2 36.0 36.8 68.6 181.1 195.5 678.6
04/05 19:50 22.6 82 16.47 19.4 13 17 1017.8 0.2 35.8 36.6 68.0 179.6 193.6 672.0
04/05 19:40 22.5 82 16.38 19.3 15 17 1017.7 0.2 35.6 36.5 67.6 178.7 192.5 668.1
04/05 19:30 22.6 83 16.67 19.6 15 20 1017.7 0.2 36.2 37.0 68.9 182.0 196.6 682.4
04/05 19:20 22.5 84 16.78 19.7 15 17 1017.7 0.2 36.5 37.2 69.5 183.6 198.5 689.1
04/05 19:10 22.6 85 17.07 19.9 15 17 1017.5 0.2 37.1 37.7 70.7 186.9 202.6 703.4
04/05 19:00 22.5 85 16.98 19.9 15 20 1017.2 0.2 36.9 37.6 70.4 186.0 201.5 699.4
04/05 18:50 22.6 85 17.07 19.9 15 19 1017.2 0.2 37.1 37.7 70.7 186.9 202.6 703.2
04/05 18:40 22.9 82 16.76 19.7 19 20 1017.2 0.2 36.4 37.0 69.0 182.3 197.1 684.2
04/05 18:30 22.9 82 16.76 19.7 17 24 1017 0.2 36.4 37.0 69.0 182.3 197.1 684.1
04/05 18:20 22.8 82 16.66 19.6 17 20 1017 0.2 36.2 36.8 68.6 181.3 195.8 679.7
04/05 18:10 22.7 83 16.77 19.7 15 19 1016.9 0.2 36.4 37.1 69.2 182.9 197.7 686.3
04/05 18:00 22.9 81 16.55 19.5 20 28 1016.5 0.2 35.9 36.6 68.0 179.7 193.9 672.9
04/05 17:50 23.1 82 16.95 19.9 17 19 1016.5 0.2 36.8 37.2 69.6 184.1 199.3 692.0
04/05 17:40 22.8 82 16.66 19.6 13 15 1016.5 0.2 36.2 36.8 68.6 181.2 195.8 679.5
04/05 17:30 22.9 82 16.76 19.7 17 20 1016.2 0.2 36.4 36.9 68.9 182.2 197.0 683.7
04/05 17:20 23 82 16.85 19.8 17 20 1016.2 0.2 36.6 37.1 69.3 183.0 198.1 687.5
04/05 17:10 23 83 17.06 20 19 22 1016.2 0.2 37.0 37.4 70.2 185.6 201.2 698.5
04/05 17:00 23.1 82 16.95 19.9 15 22 1016.1 0.2 36.8 37.2 69.6 184.0 199.3 691.8
04/05 16:50 23.3 80 16.73 19.7 19 20 1016.1 0.2 36.3 36.7 68.4 180.8 195.5 678.5
04/05 16:40 23.5 80 16.92 19.8 17 20 1016.1 0.2 36.7 37.0 69.1 182.7 197.8 686.6
04/05 16:30 23.6 77 16.38 19.3 19 24 1016 0.2 35.5 35.9 66.6 175.9 189.5 657.7
04/05 16:20 23.6 79 16.8 19.7 19 22 1016.1 0.2 36.4 36.7 68.5 181.0 195.7 679.4
04/05 16:10 23.8 80 17.21 20.1 20 24 1016.1 0.2 37.3 37.4 70.2 185.5 201.3 699.0
04/05 16:00 23.9 79 17.09 20 19 24 1015.9 0.2 37.0 37.1 69.5 183.8 199.2 691.7
04/05 15:50 24.3 76 16.82 19.8 20 24 1016 0.2 36.4 36.4 67.9 179.6 194.2 674.2
04/05 15:40 24.5 75 16.78 19.8 20 22 1015.9 0.2 36.3 36.3 67.6 178.6 193.1 670.4
04/05 15:30 24.6 75 16.88 19.9 20 26 1015.8 0.2 36.5 36.4 67.9 179.5 194.3 674.6
04/05 15:20 24.6 73 16.43 19.4 20 24 1015.9 0.2 35.5 35.6 65.9 174.2 187.7 651.7
04/05 15:10 24.8 73 16.62 19.6 20 22 1015.8 0.2 35.9 35.8 66.6 176.0 190.0 659.6
04/05 15:00 24.8 73 16.62 19.6 20 26 1015.7 0.2 35.9 35.8 66.6 176.0 190.0 659.5
04/05 14:50 24.7 71 16.07 19.1 22 24 1015.8 0.2 34.8 34.9 64.2 169.7 182.3 632.7
04/05 14:40 25.1 72 16.67 19.7 19 20 1015.8 0.2 36.0 35.8 66.6 175.9 189.9 659.5
04/05 14:30 25 72 16.57 19.6 20 24 1015.7 0.2 35.8 35.7 66.2 174.9 188.7 655.3
04/05 14:20 24.9 71 16.25 19.3 22 28 1016 0.2 35.1 35.2 64.9 171.4 184.4 640.1
04/05 14:10 24.9 72 16.48 19.5 20 22 1016.1 0.2 35.6 35.6 65.9 174.1 187.7 651.8
04/05 14:00 24.9 71 16.25 19.3 19 24 1016 0.2 35.1 35.2 64.9 171.4 184.4 640.1
04/05 13:50 25.4 72 16.95 20 17 19 1016.1 0.2 36.6 36.2 67.6 178.6 193.3 671.2
04/05 13:40 25.3 71 16.62 19.7 19 20 1016.1 0.2 35.9 35.6 66.2 174.9 188.8 655.4
04/05 13:30 25.1 69 15.97 19 20 24 1016.1 0.2 34.5 34.6 63.5 167.7 179.9 624.5
04/05 13:20 25.1 71 16.44 19.5 22 24 1016.3 0.2 35.5 35.4 65.6 173.2 186.7 648.1
04/05 13:10 25.3 72 16.86 19.9 22 24 1016.4 0.2 36.4 36.1 67.3 177.8 192.3 667.7
04/05 13:00 25.4 70 16.48 19.5 19 26 1016.3 0.2 35.6 35.4 65.5 173.0 186.5 647.6
04/05 12:50 25.3 70 16.39 19.4 20 24 1016.6 0.2 35.4 35.3 65.2 172.3 185.5 644.1
04/05 12:40 24.8 71 16.16 19.2 17 19 1016.7 0.2 34.9 35.1 64.6 170.7 183.4 636.8
04/05 12:30 25.7 71 17 20 19 24 1016.9 0.2 36.6 36.2 67.6 178.6 193.4 671.5
04/05 12:20 25.5 69 16.34 19.4 19 20 1017 0.2 35.3 35.1 64.8 171.3 184.4 640.1
04/05 12:10 25.2 72 16.76 19.8 17 22 1017 0.2 36.2 36.0 66.9 176.9 191.2 663.8
04/05 12:00 25.1 73 16.9 19.9 17 22 1017.1 0.2 36.5 36.3 67.7 178.8 193.5 671.8
04/05 11:50 24.9 75 17.17 20.2 17 20 1017.3 0.2 37.1 36.9 69.1 182.5 198.0 687.5
04/05 11:40 24.6 73 16.43 19.4 20 22 1017.5 0.2 35.5 35.7 66.0 174.4 187.9 652.4
04/05 11:30 24.7 73 16.52 19.5 17 22 1017.6 0.2 35.7 35.8 66.3 175.3 189.0 656.2
04/05 11:20 24.8 75 17.07 20.1 13 17 1017.9 0.2 36.9 36.7 68.7 181.7 196.9 683.5
04/05 11:10 24.9 73 16.71 19.7 17 19 1018 0.2 36.1 36.1 67.0 177.1 191.3 664.3
04/05 11:00 24.9 74 16.94 19.9 17 22 1018 0.2 36.6 36.5 68.1 179.9 194.7 676.0
04/05 10:50 24.7 76 17.2 20.2 17 19 1018.1 0.2 37.1 37.0 69.4 183.5 199.1 691.2
04/05 10:40 24.5 76 17.01 20 19 20 1018.2 0.2 36.8 36.8 68.8 181.7 196.8 683.3
04/05 10:30 24.3 76 16.82 19.8 17 24 1018.2 0 36.4 36.5 68.1 179.9 194.5 675.3
04/05 10:20 24.4 77 17.14 20.1 17 19 1018.4 0 37.0 37.1 69.4 183.5 199.0 691.0
04/05 10:10 24.3 77 17.04 20 13 15 1018.5 0 36.8 36.9 69.1 182.6 197.8 686.8
04/05 10:00 23.9 77 16.66 19.6 15 22 1018.5 0 36.1 36.4 67.7 178.9 193.2 670.7
04/05 09:50 24.3 81 17.92 20.8 15 17 1018.7 0 38.7 38.6 73.2 193.4 211.1 732.9
04/05 09:40 23.6 80 17.01 19.9 17 20 1018.7 0 36.8 37.2 69.6 183.9 199.2 691.6
04/05 09:30 23.6 81 17.23 20.1 13 19 1018.5 0 37.3 37.6 70.6 186.6 202.5 703.1
04/05 09:20 22.7 85 17.17 20 15 19 1018.5 0 37.3 37.9 71.2 188.1 204.0 708.3
04/05 09:10 22.3 87 17.18 20 11 13 1018.4 0 37.3 38.1 71.6 189.2 205.3 712.5
04/05 09:00 21.8 87 16.69 19.5 11 13 1018.2 0 36.3 37.4 69.7 184.3 199.1 690.9
04/05 08:50 21.8 86 16.5 19.4 13 15 1018.3 0.8 35.9 37.0 68.9 181.9 196.2 680.9
04/05 08:40 22.2 87 17.08 19.9 11 13 1018.4 0.8 37.1 37.9 71.2 188.2 204.0 708.1
04/05 08:30 21.9 88 16.98 19.8 15 19 1018.2 0.8 36.9 37.9 71.0 187.6 203.3 705.5
04/05 08:20 21.6 91 17.26 20.1 15 17 1018.3 0.8 37.6 38.5 72.6 191.9 208.4 723.4
04/05 08:10 20.9 92 16.75 19.6 13 15 1018.3 0.8 36.5 37.9 70.9 187.2 202.5 702.5
04/05 08:00 20.7 92 16.56 19.4 11 13 1018.1 0.8 36.1 37.6 70.1 185.3 200.0 694.0
04/05 07:50 20.6 93 16.64 19.4 11 13 1018.1 0.8 36.3 37.8 70.6 186.5 201.5 699.2
04/05 07:40 20.3 93 16.35 19.1 13 15 1018 0.8 35.7 37.4 69.5 183.6 197.8 686.3
04/05 07:30 20.1 93 16.16 18.9 11 15 1018 0.8 35.3 37.1 68.8 181.7 195.4 677.9
04/05 07:20 20.1 93 16.16 18.9 13 13 1018.1 0.8 35.3 37.1 68.8 181.7 195.4 677.9
04/05 07:10 19.9 93 15.98 18.7 11 13 1018.1 0.8 35.0 36.9 68.1 179.9 193.2 670.1
04/05 07:00 19.8 93 15.88 18.6 15 19 1018.1 0.8 34.8 36.7 67.7 178.9 191.9 665.6
04/05 06:50 19.7 93 15.79 18.5 15 17 1018.1 0.8 34.6 36.6 67.4 178.0 190.8 661.7
04/05 06:40 19.7 93 15.79 18.5 13 15 1018 0.8 34.6 36.6 67.4 178.0 190.8 661.6
04/05 06:30 19.6 93 15.7 18.4 13 17 1017.8 0.8 34.4 36.5 67.1 177.1 189.6 657.6
04/05 06:20 19.6 94 15.87 18.6 15 17 1017.9 0.8 34.8 36.8 67.9 179.2 192.2 666.7
04/05 06:10 19.6 94 15.87 18.6 13 13 1017.7 0.8 34.8 36.8 67.9 179.2 192.2 666.6
04/05 06:00 19.5 94 15.77 18.5 13 15 1017.5 0.8 34.6 36.6 67.5 178.2 190.9 662.1
04/05 05:50 19.5 94 15.77 18.5 9 11 1017.5 0.8 34.6 36.6 67.5 178.2 190.9 662.1

Last Refresh: 04-May-2026 21:55:35

Bureau of Meteorology